Time;durP1;ratioP1;P1;durP2;ratioP2;P2;SDS_P1;SDS_P2;PMS_P1;PMS_P2;Temp;Humidity;BMP_temperature;BMP_pressure;BME280_temperature;BME280_humidity;BME280_pressure;Samples;Min_cycle;Max_cycle;Signal;HPM_P1;HPM_P2
2022/10/04 00:00:49;;;;;;;17.50;12.07;;;;;;;5.81;100.00;100921.09;4990366;28;20588;-65
2022/10/04 00:03:31;;;;;;;17.07;10.87;;;;;;;5.86;100.00;100933.75;5002664;28;20272;-66
2022/10/04 00:05:59;;;;;;;19.27;11.10;;;;;;;5.70;100.00;100923.84;4984073;28;20239;-65
2022/10/04 00:08:49;;;;;;;19.10;11.37;;;;;;;5.65;100.00;100920.56;4992197;28;20180;-67
2022/10/04 00:11:24;;;;;;;14.37;11.23;;;;;;;5.59;100.00;100915.59;4994619;28;20239;-66
2022/10/04 00:14:15;;;;;;;15.83;11.00;;;;;;;5.47;100.00;100922.63;4979553;28;20231;-66
2022/10/04 00:16:45;;;;;;;15.63;10.53;;;;;;;5.65;100.00;100918.84;4987994;28;20207;-65
2022/10/04 00:19:13;;;;;;;14.13;10.93;;;;;;;5.70;100.00;100917.91;4990760;28;20201;-65
2022/10/04 00:21:50;;;;;;;14.20;11.27;;;;;;;5.56;100.00;100921.59;4994962;28;20242;-65
2022/10/04 00:24:36;;;;;;;15.17;10.93;;;;;;;5.52;100.00;100921.69;4993731;28;20546;-65
2022/10/04 00:27:22;;;;;;;13.13;10.27;;;;;;;5.58;100.00;100927.53;4990983;28;20189;-65
2022/10/04 00:30:02;;;;;;;14.73;11.57;;;;;;;5.57;100.00;100919.88;4990076;28;20286;-65
2022/10/04 00:32:40;;;;;;;15.00;10.03;;;;;;;5.60;100.00;100925.75;4966156;28;20211;-65
2022/10/04 00:35:24;;;;;;;12.73;10.40;;;;;;;5.50;100.00;100921.72;4991800;28;20275;-66
2022/10/04 00:38:01;;;;;;;15.10;10.27;;;;;;;5.45;100.00;100914.16;4991751;28;20214;-67
2022/10/04 00:40:31;;;;;;;18.50;10.83;;;;;;;5.49;100.00;100920.03;4985343;28;20721;-65
2022/10/04 00:43:05;;;;;;;15.13;10.97;;;;;;;5.45;100.00;100911.59;4992052;28;20191;-65
2022/10/04 00:45:40;;;;;;;16.57;11.13;;;;;;;5.45;100.00;100903.94;4992844;28;20205;-66
2022/10/04 00:48:29;;;;;;;15.00;12.03;;;;;;;5.34;100.00;100906.69;4992547;28;20229;-65
2022/10/04 00:51:07;;;;;;;15.13;10.73;;;;;;;5.49;100.00;100910.69;4989342;28;20238;-66
2022/10/04 00:53:33;;;;;;;20.27;11.37;;;;;;;5.37;100.00;100912.63;4999675;28;20295;-65
2022/10/04 00:56:02;;;;;;;17.40;11.03;;;;;;;5.47;100.00;100909.88;4991296;28;20274;-66
2022/10/04 00:58:34;;;;;;;16.37;10.27;;;;;;;5.48;100.00;100903.03;4979915;28;20183;-65
2022/10/04 01:01:02;;;;;;;17.40;10.67;;;;;;;5.43;100.00;100899.75;4989892;28;20344;-65
2022/10/04 01:03:33;;;;;;;13.37;11.00;;;;;;;5.25;100.00;100896.69;4997658;28;20669;-65
2022/10/04 01:06:05;;;;;;;15.20;10.53;;;;;;;5.43;100.00;100895.50;4990153;28;20256;-66
2022/10/04 01:08:45;;;;;;;14.90;11.57;;;;;;;5.42;100.00;100898.06;4992334;28;20187;-65
2022/10/04 01:11:36;;;;;;;14.40;10.13;;;;;;;5.31;100.00;100900.84;4983059;28;20240;-65
2022/10/04 01:14:19;;;;;;;17.97;11.13;;;;;;;5.30;100.00;100892.34;4983176;28;20216;-66
2022/10/04 01:16:45;;;;;;;15.33;11.13;;;;;;;5.39;100.00;100900.69;4992137;28;20188;-65
2022/10/04 01:19:23;;;;;;;21.50;12.00;;;;;;;5.30;100.00;100894.06;4991476;28;20188;-66
2022/10/04 01:22:06;;;;;;;17.53;10.93;;;;;;;5.23;100.00;100893.31;4977740;28;20226;-66
2022/10/04 01:24:44;;;;;;;14.90;10.67;;;;;;;5.25;100.00;100894.13;4985697;28;20283;-65
2022/10/04 01:27:30;;;;;;;17.90;11.60;;;;;;;5.02;100.00;100894.56;4991729;28;20188;-66
2022/10/04 01:29:57;;;;;;;14.67;11.93;;;;;;;5.11;100.00;100896.09;4989552;28;20187;-65
2022/10/04 01:32:22;;;;;;;13.27;11.27;;;;;;;5.19;100.00;100891.72;4995895;28;20219;-65
2022/10/04 01:34:47;;;;;;;17.30;11.23;;;;;;;5.20;100.00;100885.75;4989266;28;20234;-65
2022/10/04 01:37:13;;;;;;;17.50;11.00;;;;;;;5.21;100.00;100886.56;4991205;28;20215;-66
2022/10/04 01:39:38;;;;;;;13.50;10.40;;;;;;;5.27;100.00;100878.78;4988165;28;20649;-66
2022/10/04 01:42:08;;;;;;;13.13;10.67;;;;;;;5.11;100.00;100881.66;4986126;28;20234;-65
2022/10/04 01:45:00;;;;;;;14.40;11.33;;;;;;;5.20;100.00;100880.63;4989270;28;20226;-65
2022/10/04 01:47:34;;;;;;;16.60;11.57;;;;;;;5.20;100.00;100867.03;4991285;28;20331;-66
2022/10/04 01:50:06;;;;;;;16.63;11.13;;;;;;;5.21;100.00;100866.16;4991054;28;20262;-67
2022/10/04 01:52:49;;;;;;;11.63;9.80;;;;;;;5.12;100.00;100851.88;4965950;28;20277;-66
2022/10/04 01:55:19;;;;;;;14.27;10.70;;;;;;;5.18;100.00;100849.22;4986780;28;20180;-66
2022/10/04 01:57:51;;;;;;;20.83;12.40;;;;;;;5.11;100.00;100852.75;4994971;28;20179;-67
2022/10/04 02:00:21;;;;;;;19.87;11.47;;;;;;;5.04;100.00;100849.50;4985919;28;20589;-65
2022/10/04 02:02:59;;;;;;;18.23;12.10;;;;;;;4.96;100.00;100843.69;4975535;28;20188;-66
2022/10/04 02:05:41;;;;;;;16.97;11.03;;;;;;;4.95;100.00;100845.41;4993777;28;20189;-65
2022/10/04 02:08:15;;;;;;;15.67;11.57;;;;;;;5.08;100.00;100846.00;4991288;28;20180;-68
2022/10/04 02:10:42;;;;;;;14.97;11.47;;;;;;;5.10;100.00;100851.09;4986097;28;20270;-65
2022/10/04 02:13:13;;;;;;;15.00;11.00;;;;;;;5.14;100.00;100847.59;5006214;28;20219;-65
2022/10/04 02:15:38;;;;;;;18.67;13.33;;;;;;;5.01;100.00;100841.88;4993290;28;20187;-65
2022/10/04 02:18:16;;;;;;;13.93;11.00;;;;;;;5.04;100.00;100844.41;4994524;28;20209;-65
2022/10/04 02:20:43;;;;;;;16.70;12.67;;;;;;;5.13;100.00;100838.28;4985860;28;20242;-65
2022/10/04 02:23:10;;;;;;;14.47;11.87;;;;;;;5.25;100.00;100842.28;4993491;28;20179;-65
2022/10/04 02:25:37;;;;;;;15.37;11.13;;;;;;;5.21;100.00;100841.50;4990070;28;20191;-66
2022/10/04 02:28:03;;;;;;;15.20;11.23;;;;;;;5.08;100.00;100834.97;4993998;28;20214;-65
2022/10/04 02:30:36;;;;;;;15.73;11.73;;;;;;;4.95;100.00;100832.66;4988053;28;20329;-65
2022/10/04 02:33:02;;;;;;;16.33;11.47;;;;;;;5.03;100.00;100829.97;5006231;28;20261;-65
2022/10/04 02:35:31;;;;;;;15.87;11.67;;;;;;;5.08;100.00;100832.44;4992822;28;20203;-65
2022/10/04 02:38:12;;;;;;;15.10;10.87;;;;;;;5.04;100.00;100828.25;4995378;28;20183;-65
2022/10/04 02:40:53;;;;;;;16.37;11.20;;;;;;;5.03;100.00;100827.41;4981932;28;20246;-65
2022/10/04 02:43:41;;;;;;;15.93;11.07;;;;;;;5.12;100.00;100832.34;4985110;28;20242;-65
2022/10/04 02:46:24;;;;;;;17.00;10.30;;;;;;;5.11;100.00;100834.91;5000100;28;20201;-65
2022/10/04 02:48:55;;;;;;;15.40;11.50;;;;;;;5.22;100.00;100837.25;4992792;28;20257;-66
2022/10/04 02:51:29;;;;;;;16.30;11.47;;;;;;;5.22;100.00;100838.09;4975580;28;20236;-66
2022/10/04 02:54:04;;;;;;;12.90;11.23;;;;;;;5.15;100.00;100828.88;4994933;28;20220;-66
2022/10/04 02:56:31;;;;;;;14.77;10.87;;;;;;;5.14;100.00;100825.47;4995882;28;20692;-65
2022/10/04 02:59:01;;;;;;;15.43;11.47;;;;;;;5.12;100.00;100821.28;4995576;28;20175;-65
2022/10/04 03:01:38;;;;;;;15.10;10.47;;;;;;;4.99;100.00;100823.25;4975153;28;20226;-65
2022/10/04 03:04:04;;;;;;;12.37;11.07;;;;;;;4.98;100.00;100814.75;4989758;28;20183;-67
2022/10/04 03:06:32;;;;;;;15.20;10.13;;;;;;;5.06;100.00;100823.94;4984052;28;20196;-65
2022/10/04 03:09:01;;;;;;;13.43;10.07;;;;;;;5.08;100.00;100817.13;4994588;28;20662;-65
2022/10/04 03:11:30;;;;;;;15.73;11.10;;;;;;;5.05;100.00;100828.22;4987138;28;20761;-65
2022/10/04 03:13:59;;;;;;;16.97;11.23;;;;;;;5.03;100.00;100842.72;4998989;28;20262;-65
2022/10/04 03:16:25;;;;;;;14.90;10.20;;;;;;;5.05;100.00;100832.47;4975098;28;20254;-65
2022/10/04 03:18:55;;;;;;;11.37;9.63;;;;;;;4.94;100.00;100830.16;4993996;28;20188;-65
2022/10/04 03:21:22;;;;;;;14.17;10.57;;;;;;;4.85;100.00;100823.53;4983846;28;20230;-66
2022/10/04 03:23:50;;;;;;;12.20;9.47;;;;;;;4.91;100.00;100823.41;4987625;28;20226;-65
2022/10/04 03:26:41;;;;;;;11.03;9.93;;;;;;;4.91;100.00;100822.56;4987909;28;20222;-66
2022/10/04 03:29:09;;;;;;;14.37;10.70;;;;;;;5.01;100.00;100821.50;4989426;28;20187;-65
2022/10/04 03:31:38;;;;;;;11.80;10.60;;;;;;;5.06;100.00;100817.16;4951451;28;20228;-65
2022/10/04 03:34:03;;;;;;;13.87;10.43;;;;;;;5.10;100.00;100826.41;4978640;28;20269;-66
2022/10/04 03:36:29;;;;;;;15.43;11.20;;;;;;;4.99;100.00;100828.34;4993522;28;20670;-65
2022/10/04 03:38:56;;;;;;;21.00;11.37;;;;;;;5.14;100.00;100822.09;4993205;28;20234;-65
2022/10/04 03:41:24;;;;;;;13.93;10.57;;;;;;;5.23;100.00;100832.09;4972348;28;20234;-65
2022/10/04 03:43:52;;;;;;;12.20;10.33;;;;;;;5.31;100.00;100827.69;4985558;28;20187;-66
2022/10/04 03:46:18;;;;;;;12.90;10.27;;;;;;;5.17;100.00;100825.44;4989986;28;20206;-66
2022/10/04 03:48:51;;;;;;;15.80;10.13;;;;;;;5.19;100.00;100819.47;4993105;28;20188;-65
2022/10/04 03:51:20;;;;;;;16.03;10.43;;;;;;;5.25;100.00;100820.16;4970719;28;20241;-66
2022/10/04 03:53:48;;;;;;;14.70;10.93;;;;;;;5.44;100.00;100817.22;4994056;28;20620;-66
2022/10/04 03:56:28;;;;;;;13.77;11.57;;;;;;;5.41;100.00;100823.22;4993086;28;20246;-66
2022/10/04 03:58:54;;;;;;;11.93;10.30;;;;;;;5.45;100.00;100822.28;4991384;28;20172;-65
2022/10/04 04:01:40;;;;;;;11.77;10.17;;;;;;;5.40;100.00;100823.28;4974557;28;20235;-66
2022/10/04 04:04:12;;;;;;;10.97;9.87;;;;;;;5.39;100.00;100814.75;4989363;28;20179;-65
2022/10/04 04:06:45;;;;;;;11.97;9.93;;;;;;;5.28;100.00;100804.81;4988708;28;20280;-65
2022/10/04 04:09:20;;;;;;;12.73;9.93;;;;;;;5.25;100.00;100801.47;4983157;28;20731;-65
2022/10/04 04:11:49;;;;;;;12.50;9.33;;;;;;;5.29;100.00;100796.25;4970769;28;20239;-65
2022/10/04 04:14:22;;;;;;;11.20;9.30;;;;;;;5.28;100.00;100798.84;4992575;28;20270;-66
2022/10/04 04:16:47;;;;;;;12.47;9.80;;;;;;;5.32;100.00;100796.22;4993286;28;20278;-65
2022/10/04 04:19:17;;;;;;;11.07;9.90;;;;;;;5.34;100.00;100799.53;4991411;28;20238;-66
2022/10/04 04:21:43;;;;;;;11.83;9.80;;;;;;;5.40;100.00;100798.59;4983844;28;20243;-65
2022/10/04 04:24:28;;;;;;;11.70;10.10;;;;;;;5.32;100.00;100796.22;4988070;28;20267;-66
2022/10/04 04:26:58;;;;;;;12.30;10.13;;;;;;;5.35;100.00;100792.75;4988312;28;20271;-65
2022/10/04 04:29:31;;;;;;;10.63;9.57;;;;;;;5.30;100.00;100792.84;4992694;28;20180;-65
2022/10/04 04:32:02;;;;;;;12.87;9.27;;;;;;;5.27;100.00;100790.38;4968631;28;20231;-69
2022/10/04 04:34:31;;;;;;;11.17;9.43;;;;;;;5.34;100.00;100793.63;4986736;28;20199;-64
2022/10/04 04:37:02;;;;;;;11.27;10.00;;;;;;;5.26;100.00;100790.38;4993497;28;20211;-65
2022/10/04 04:39:36;;;;;;;10.80;9.10;;;;;;;5.40;100.00;100798.59;4992178;28;20218;-65
2022/10/04 04:42:06;;;;;;;13.10;10.93;;;;;;;5.45;100.00;100785.72;4967884;28;20293;-67
2022/10/04 04:44:32;;;;;;;11.80;10.60;;;;;;;5.27;100.00;100782.72;4998815;28;20202;-65
2022/10/04 04:46:59;;;;;;;13.00;10.13;;;;;;;5.15;100.00;100783.81;4992006;28;20231;-65
2022/10/04 04:49:28;;;;;;;11.53;10.30;;;;;;;5.21;100.00;100793.06;4993329;28;20209;-65
2022/10/04 04:51:53;;;;;;;13.37;10.00;;;;;;;5.14;100.00;100794.03;4969950;28;20246;-65
2022/10/04 04:54:23;;;;;;;10.97;9.97;;;;;;;5.23;100.00;100786.19;4988252;28;20222;-66
2022/10/04 04:56:51;;;;;;;11.87;10.60;;;;;;;5.19;100.00;100786.31;4992365;28;20195;-64
2022/10/04 04:59:19;;;;;;;14.50;10.50;;;;;;;5.24;100.00;100792.16;4994259;28;20266;-66
2022/10/04 05:01:46;;;;;;;15.40;11.00;;;;;;;5.25;100.00;100794.66;4971317;28;20226;-66
2022/10/04 05:04:12;;;;;;;11.63;10.37;;;;;;;5.29;100.00;100791.16;4993678;28;20643;-66
2022/10/04 05:06:46;;;;;;;11.60;10.40;;;;;;;5.22;100.00;100784.53;4991124;28;20195;-66
2022/10/04 05:09:27;;;;;;;11.57;9.93;;;;;;;5.22;100.00;100781.97;4989166;28;20191;-66
2022/10/04 05:11:58;;;;;;;12.10;10.60;;;;;;;5.07;100.00;100774.63;4980559;28;20221;-67
2022/10/04 05:14:23;;;;;;;14.80;10.93;;;;;;;5.09;100.00;100771.19;4984221;28;20207;-67
2022/10/04 05:16:51;;;;;;;12.70;10.93;;;;;;;5.13;100.00;100772.78;4984635;28;20201;-66
2022/10/04 05:19:23;;;;;;;18.70;16.90;;;;;;;5.12;100.00;100783.03;4989576;28;20192;-66
2022/10/04 05:21:52;;;;;;;18.53;15.40;;;;;;;5.22;100.00;100787.09;4970848;28;20359;-66
2022/10/04 05:24:25;;;;;;;16.43;13.70;;;;;;;5.27;100.00;100781.84;4993328;28;20183;-66
2022/10/04 05:26:54;;;;;;;20.30;14.27;;;;;;;5.40;100.00;100798.59;4991461;28;20198;-66
2022/10/04 05:29:25;;;;;;;15.20;13.60;;;;;;;5.49;100.00;100798.41;4991262;28;20317;-66
2022/10/04 05:32:03;;;;;;;16.77;12.53;;;;;;;5.47;100.00;100805.25;4984529;28;20218;-66
2022/10/04 05:34:35;;;;;;;14.60;13.10;;;;;;;5.46;100.00;100798.44;4991142;28;20219;-67
2022/10/04 05:37:25;;;;;;;15.70;12.77;;;;;;;5.53;100.00;100799.16;4991552;28;20234;-66
2022/10/04 05:40:02;;;;;;;13.03;11.73;;;;;;;5.68;100.00;100798.00;4991496;28;20278;-66
2022/10/04 05:42:48;;;;;;;15.77;11.10;;;;;;;5.74;100.00;100805.50;4964554;28;20226;-66
2022/10/04 05:45:23;;;;;;;15.77;11.47;;;;;;;5.87;100.00;100806.03;4983172;28;20183;-66
2022/10/04 05:47:51;;;;;;;12.63;11.23;;;;;;;5.90;100.00;100800.84;4992815;28;20319;-66
2022/10/04 05:50:22;;;;;;;14.60;12.23;;;;;;;5.56;100.00;100793.16;4980999;28;20244;-67
2022/10/04 05:52:50;;;;;;;13.73;12.33;;;;;;;5.70;100.00;100800.50;4987296;28;20616;-66
2022/10/04 05:55:42;;;;;;;14.63;12.57;;;;;;;5.74;100.00;100797.84;4989635;28;20199;-66
2022/10/04 05:58:40;;;;;;;15.13;11.70;;;;;;;5.94;100.00;100802.47;4990685;28;20217;-67
2022/10/04 06:01:23;;;;;;;12.87;10.97;;;;;;;6.04;100.00;100800.56;4982837;28;20228;-67
2022/10/04 06:04:33;;;;;;;12.47;11.20;;;;;;;5.90;100.00;100802.56;4991889;28;20635;-66
2022/10/04 06:07:08;;;;;;;17.63;12.77;;;;;;;5.99;100.00;100799.81;4921730;28;20283;-66
2022/10/04 06:09:55;;;;;;;12.90;11.63;;;;;;;6.00;100.00;100803.22;4991684;28;20186;-66
2022/10/04 06:12:44;;;;;;;13.33;12.00;;;;;;;6.09;100.00;100805.53;4978427;28;20233;-66
2022/10/04 06:15:40;;;;;;;13.33;10.10;;;;;;;6.25;100.00;100813.66;4990818;28;20668;-65
2022/10/04 06:18:23;;;;;;;11.43;10.10;;;;;;;6.33;100.00;100816.88;4988416;28;20197;-66
2022/10/04 06:21:00;;;;;;;10.90;9.80;;;;;;;6.41;100.00;100816.69;4978042;28;20322;-66
2022/10/04 06:23:32;;;;;;;11.20;10.10;;;;;;;6.41;100.00;100819.22;4977370;28;20191;-66
2022/10/04 06:26:23;;;;;;;12.33;10.70;;;;;;;6.28;100.00;100814.44;4984764;28;20215;-66
2022/10/04 06:28:54;;;;;;;12.20;9.97;;;;;;;6.42;100.00;100806.41;4986421;28;20240;-67
2022/10/04 06:31:41;;;;;;;11.80;9.47;;;;;;;6.59;100.00;100818.75;4982630;28;21088;-65
2022/10/04 06:34:25;;;;;;;12.57;9.93;;;;;;;6.69;100.00;100818.53;4980823;28;20213;-64
2022/10/04 06:37:31;;;;;;;11.93;9.97;;;;;;;6.77;100.00;100817.44;4991425;28;20687;-64
2022/10/04 06:40:31;;;;;;;12.87;9.67;;;;;;;6.58;100.00;100814.50;4992766;28;20202;-63
2022/10/04 06:43:38;;;;;;;10.63;8.97;;;;;;;6.86;100.00;100811.22;4965420;28;20669;-64
2022/10/04 06:46:13;;;;;;;10.37;8.87;;;;;;;7.18;100.00;100819.72;4993321;28;20409;-64
2022/10/04 06:48:59;;;;;;;11.27;8.93;;;;;;;7.27;100.00;100822.00;4992482;28;20679;-64
2022/10/04 06:51:49;;;;;;;11.20;9.47;;;;;;;7.38;100.00;100823.41;4984763;28;20233;-64
2022/10/04 06:54:33;;;;;;;12.47;8.83;;;;;;;7.42;100.00;100819.88;4990109;28;20207;-64
2022/10/04 06:57:21;;;;;;;10.43;9.43;;;;;;;7.81;100.00;100816.97;5008662;28;20555;-65
2022/10/04 06:59:55;;;;;;;8.70;7.90;;;;;;;8.10;100.00;100822.91;4990938;28;20217;-69
2022/10/04 07:02:30;;;;;;;10.60;8.47;;;;;;;8.21;100.00;100819.97;4975444;28;20701;-66
2022/10/04 07:05:21;;;;;;;9.70;7.90;;;;;;;8.24;100.00;100819.88;4992004;28;20638;-64
2022/10/04 07:08:05;;;;;;;11.03;7.27;;;;;;;8.80;100.00;100826.53;4993710;28;20183;-64
2022/10/04 07:10:36;;;;;;;10.57;7.60;;;;;;;9.30;100.00;100814.47;4979326;28;20522;-63
2022/10/04 07:13:08;;;;;;;8.60;7.80;;;;;;;9.50;100.00;100817.13;4992349;28;21036;-64
2022/10/04 07:15:54;;;;;;;7.60;6.80;;;;;;;9.10;100.00;100808.34;4978986;28;20261;-63
2022/10/04 07:18:26;;;;;;;8.30;7.10;;;;;;;9.16;100.00;100807.28;4987400;28;20198;-63
2022/10/04 07:21:02;;;;;;;12.40;8.67;;;;;;;9.07;100.00;100810.19;4976632;28;20372;-63
2022/10/04 07:23:34;;;;;;;12.90;9.73;;;;;;;8.88;100.00;100805.72;4990192;28;20179;-64
2022/10/04 07:26:18;;;;;;;19.57;15.23;;;;;;;8.80;100.00;100807.75;4981634;28;20187;-65
2022/10/04 07:31:33;;;;;;;32.40;16.63;;;;;;;8.72;100.00;100798.59;4962193;28;20391;-65
2022/10/04 07:34:10;;;;;;;24.70;17.17;;;;;;;8.42;100.00;100791.94;4986665;28;20219;-66
2022/10/04 07:36:59;;;;;;;25.67;16.93;;;;;;;8.53;100.00;100800.97;4978543;28;20215;-65
2022/10/04 07:40:12;;;;;;;24.57;17.10;;;;;;;8.96;100.00;100801.16;4992696;28;20218;-65
2022/10/04 07:42:43;;;;;;;25.47;17.53;;;;;;;9.19;100.00;100792.63;4970469;28;20233;-64
2022/10/04 07:45:31;;;;;;;24.00;17.03;;;;;;;9.75;100.00;100803.31;4991387;28;20669;-65
2022/10/04 07:48:08;;;;;;;25.43;16.23;;;;;;;9.59;100.00;100804.81;4984327;28;20246;-70
2022/10/04 07:50:45;;;;;;;24.07;17.07;;;;;;;9.60;100.00;100807.34;4985968;28;21876;-65
2022/10/04 07:53:17;;;;;;;22.17;16.47;;;;;;;9.48;100.00;100800.09;4998596;28;20286;-64
2022/10/04 07:56:23;;;;;;;19.77;15.87;;;;;;;9.97;100.00;100797.31;4985358;28;20195;-67
2022/10/04 07:59:22;;;;;;;21.07;16.37;;;;;;;9.93;100.00;100803.47;4982565;28;20415;-65
2022/10/04 08:02:14;;;;;;;18.93;15.23;;;;;;;9.81;100.00;100807.34;4982844;28;20226;-65
2022/10/04 08:04:44;;;;;;;19.67;17.57;;;;;;;9.84;100.00;100805.50;4986626;28;20254;-65
2022/10/04 08:07:23;;;;;;;22.83;17.43;;;;;;;10.11;100.00;100804.44;4990479;28;20180;-65
2022/10/04 08:10:05;;;;;;;22.90;17.97;;;;;;;10.30;100.00;100800.19;4992096;28;20187;-64
2022/10/04 08:12:51;;;;;;;18.77;15.57;;;;;;;10.30;100.00;100800.19;4963572;28;20635;-64
2022/10/04 08:15:33;;;;;;;21.27;16.83;;;;;;;10.11;100.00;100802.72;4990119;28;20179;-64
2022/10/04 08:18:19;;;;;;;19.50;16.47;;;;;;;10.14;100.00;100802.56;4985976;28;20188;-65
2022/10/04 08:20:58;;;;;;;19.43;17.43;;;;;;;10.07;100.00;100803.75;4985159;28;20241;-64
2022/10/04 08:23:38;;;;;;;20.40;17.07;;;;;;;9.99;100.00;100800.66;4991478;28;20175;-65
2022/10/04 08:26:28;;;;;;;19.90;17.80;;;;;;;9.69;100.00;100803.56;4991014;28;20193;-65
2022/10/04 08:32:41;;;;;;;19.73;16.93;;;;;;;9.75;100.00;100802.47;4997576;28;20276;-66
2022/10/04 08:35:26;;;;;;;20.47;18.27;;;;;;;10.35;100.00;100810.31;4990418;28;20269;-65
2022/10/04 08:38:24;;;;;;;20.43;16.83;;;;;;;10.34;100.00;100803.47;4994783;28;20188;-66
2022/10/04 08:41:11;;;;;;;22.00;18.03;;;;;;;10.52;100.00;100801.91;4980991;28;20235;-66
2022/10/04 08:44:11;;;;;;;23.93;19.17;;;;;;;10.45;100.00;100806.47;4985838;28;20195;-67
2022/10/04 08:47:06;;;;;;;20.23;17.33;;;;;;;10.45;100.00;100808.22;4992590;28;20226;-66
2022/10/04 08:50:23;;;;;;;22.90;18.37;;;;;;;10.47;100.00;100816.72;4991455;28;20222;-67
2022/10/04 08:53:23;;;;;;;22.40;18.97;;;;;;;10.54;100.00;100810.38;4965883;28;20227;-65
2022/10/04 08:56:05;;;;;;;22.23;19.40;;;;;;;10.68;100.00;100807.22;4994370;28;20197;-66
2022/10/04 08:58:52;;;;;;;24.87;19.70;;;;;;;10.76;100.00;100819.75;4993085;28;20274;-65
2022/10/04 09:01:43;;;;;;;27.23;21.60;;;;;;;10.74;100.00;100809.53;4968731;28;20239;-65
2022/10/04 09:04:45;;;;;;;26.00;21.10;;;;;;;11.17;100.00;100813.66;4989275;28;20581;-65
2022/10/04 09:07:22;;;;;;;22.80;19.53;;;;;;;11.41;100.00;100803.94;4989736;28;20202;-65
2022/10/04 09:10:15;;;;;;;22.37;19.20;;;;;;;11.36;100.00;100800.75;4989274;28;20191;-65
2022/10/04 09:12:59;;;;;;;20.90;18.57;;;;;;;11.39;100.00;100800.63;4981650;28;20283;-66
2022/10/04 09:15:36;;;;;;;21.77;19.27;;;;;;;11.70;100.00;100794.84;4992149;28;20651;-65
2022/10/04 09:18:11;;;;;;;23.73;20.27;;;;;;;12.03;100.00;100801.03;4993030;28;20285;-63
2022/10/04 09:21:01;;;;;;;23.20;19.13;;;;;;;12.83;100.00;100799.53;4983345;28;20571;-65
2022/10/04 09:23:29;;;;;;;24.40;18.57;;;;;;;13.71;100.00;100804.31;4983963;28;20520;-64
2022/10/04 09:26:24;;;;;;;21.43;17.93;;;;;;;13.69;100.00;100799.22;4988481;28;20183;-65
2022/10/04 09:29:25;;;;;;;22.77;18.87;;;;;;;13.32;100.00;100796.06;4991568;28;20536;-65
2022/10/04 09:32:21;;;;;;;21.97;18.60;;;;;;;13.24;100.00;100800.81;4979047;28;20234;-65
2022/10/04 09:34:46;;;;;;;20.60;18.03;;;;;;;13.95;100.00;100801.25;4992031;28;20242;-64
2022/10/04 09:37:43;;;;;;;18.70;16.60;;;;;;;13.33;100.00;100799.47;4990924;28;20679;-64
2022/10/04 09:40:16;;;;;;;18.90;16.63;;;;;;;13.95;100.00;100786.53;4982037;28;20174;-66
2022/10/04 09:42:52;;;;;;;18.37;16.43;;;;;;;14.62;100.00;100793.00;4990320;28;20737;-65
2022/10/04 09:45:35;;;;;;;18.43;15.67;;;;;;;15.10;99.34;100792.72;4994538;28;20277;-64
2022/10/04 09:48:21;;;;;;;18.00;15.77;;;;;;;17.10;86.96;100791.59;4984876;28;20718;-64
2022/10/04 09:51:08;;;;;;;20.43;16.73;;;;;;;17.75;76.26;100794.72;4973987;28;20231;-64
2022/10/04 09:53:33;;;;;;;18.80;15.07;;;;;;;18.45;72.70;100792.16;4981435;28;20211;-64
2022/10/04 09:56:31;;;;;;;15.37;13.77;;;;;;;17.49;73.82;100786.22;4990884;28;20182;-64
2022/10/04 09:59:35;;;;;;;14.50;13.07;;;;;;;16.24;83.11;100789.72;4983834;28;20619;-64
2022/10/04 10:02:40;;;;;;;19.70;14.77;;;;;;;15.63;90.58;100793.63;4974839;28;20246;-64
2022/10/04 10:05:28;;;;;;;16.17;14.27;;;;;;;17.05;84.59;100785.06;4978990;28;20617;-63
2022/10/04 10:08:09;;;;;;;16.00;14.10;;;;;;;16.97;79.18;100788.22;4984134;28;20183;-63
2022/10/04 10:14:01;;;;;;;14.33;12.90;;;;;;;17.26;79.93;100767.91;4998026;28;20621;-66
2022/10/04 10:16:39;;;;;;;15.53;13.60;;;;;;;17.71;78.10;100782.88;4990392;28;20653;-64
2022/10/04 10:19:41;;;;;;;15.10;13.50;;;;;;;17.12;78.92;100786.28;4987119;28;20213;-65
2022/10/04 10:22:27;;;;;;;15.13;13.60;;;;;;;16.57;87.25;100785.75;4998318;28;20620;-65
2022/10/04 10:24:56;;;;;;;16.10;13.20;;;;;;;15.98;94.90;100784.50;4992939;28;20179;-65
2022/10/04 10:27:47;;;;;;;17.53;13.43;;;;;;;16.03;94.50;100784.22;4990976;28;20200;-62
2022/10/04 10:30:31;;;;;;;15.07;13.23;;;;;;;16.09;95.99;100783.81;4983724;28;20663;-64
2022/10/04 10:33:10;;;;;;;18.77;13.60;;;;;;;15.56;96.80;100781.19;5005477;28;21045;-65
2022/10/04 10:36:15;;;;;;;18.13;14.57;;;;;;;14.96;98.34;100789.22;4992858;28;20203;-63
2022/10/04 10:39:10;;;;;;;18.20;14.90;;;;;;;14.74;100.00;100791.47;4972153;28;20191;-65
2022/10/04 10:41:50;;;;;;;17.80;14.77;;;;;;;14.14;100.00;100793.22;4954596;28;20327;-64
2022/10/04 10:44:32;;;;;;;18.53;14.80;;;;;;;13.54;100.00;100800.06;4988696;28;20184;-65
2022/10/04 10:47:07;;;;;;;18.43;15.70;;;;;;;13.00;100.00;100797.81;4976114;28;20223;-65
2022/10/04 10:50:05;;;;;;;20.20;15.40;;;;;;;13.01;100.00;100796.91;4979144;28;20566;-65
2022/10/04 10:53:09;;;;;;;18.97;15.43;;;;;;;13.10;100.00;100795.56;4980952;28;20689;-63
2022/10/04 10:56:18;;;;;;;20.20;15.40;;;;;;;12.65;100.00;100788.47;4990978;28;20223;-64
2022/10/04 10:59:00;;;;;;;16.67;11.57;;;;;;;12.60;100.00;100795.56;4991084;28;20238;-64
2022/10/04 11:02:04;;;;;;;17.07;10.47;;;;;;;13.05;100.00;100793.25;4973833;28;20706;-65
2022/10/04 11:04:53;;;;;;;13.23;9.07;;;;;;;13.31;100.00;100794.41;4991265;28;20191;-66
2022/10/04 11:07:24;;;;;;;10.73;8.83;;;;;;;13.82;100.00;100793.38;4976027;28;20279;-64
2022/10/04 11:10:17;;;;;;;11.80;9.33;;;;;;;13.68;100.00;100783.78;4985057;28;20650;-63
2022/10/04 11:13:01;;;;;;;9.70;8.27;;;;;;;13.51;100.00;100784.75;4967348;28;20624;-64
2022/10/04 11:16:07;;;;;;;13.83;8.30;;;;;;;13.49;100.00;100784.81;4983862;28;20249;-65
2022/10/04 11:18:57;;;;;;;11.90;8.40;;;;;;;13.23;100.00;100773.31;4984253;28;20184;-64
2022/10/04 11:21:41;;;;;;;9.67;7.20;;;;;;;13.43;100.00;100777.41;4976703;28;20647;-64
2022/10/04 11:24:44;;;;;;;14.77;8.07;;;;;;;13.61;100.00;100778.13;4981617;28;20242;-64
2022/10/04 11:27:42;;;;;;;14.30;8.43;;;;;;;13.61;100.00;100775.56;4994795;28;20179;-63
2022/10/04 11:30:22;;;;;;;9.20;7.97;;;;;;;13.65;100.00;100778.81;4962264;28;20198;-65
2022/10/04 11:32:56;;;;;;;11.87;7.10;;;;;;;13.57;100.00;100768.91;4991819;28;20199;-63
2022/10/04 11:35:35;;;;;;;11.43;7.83;;;;;;;13.59;100.00;100764.47;4990999;28;20280;-64
2022/10/04 11:38:21;;;;;;;11.47;7.00;;;;;;;13.91;100.00;100766.13;4988382;28;20257;-65
2022/10/04 11:41:02;;;;;;;10.53;6.53;;;;;;;13.50;100.00;100762.41;4985776;28;20361;-64
2022/10/04 11:43:45;;;;;;;8.30;6.47;;;;;;;13.34;100.00;100755.47;4981722;28;20187;-63
2022/10/04 11:46:38;;;;;;;8.67;6.27;;;;;;;13.24;100.00;100746.56;4995702;28;20278;-64
2022/10/04 11:49:18;;;;;;;6.33;5.17;;;;;;;13.64;100.00;100748.69;4988422;28;20196;-65
2022/10/04 11:52:43;;;;;;;9.10;6.00;;;;;;;13.85;100.00;100741.47;4989891;28;20231;-64
2022/10/04 11:55:47;;;;;;;9.23;6.17;;;;;;;13.98;100.00;100738.97;4985710;28;20563;-64
2022/10/04 11:58:32;;;;;;;7.07;5.27;;;;;;;14.12;100.00;100735.59;4969585;28;20675;-64
2022/10/04 12:01:00;;;;;;;9.10;6.77;;;;;;;14.01;100.00;100734.44;4972266;28;20238;-64
2022/10/04 12:03:55;;;;;;;9.83;6.40;;;;;;;14.35;100.00;100729.88;4987082;28;20197;-63
2022/10/04 12:06:34;;;;;;;7.13;5.97;;;;;;;14.22;100.00;100728.13;4989486;28;20686;-64
2022/10/04 12:09:20;;;;;;;8.50;6.47;;;;;;;14.08;100.00;100721.16;4985762;28;20270;-63
2022/10/04 12:15:07;;;;;;;8.53;5.97;;;;;;;14.67;100.00;100710.72;4978508;28;20277;-64
2022/10/04 12:17:51;;;;;;;10.50;5.87;;;;;;;14.84;100.00;100702.72;4977887;28;20195;-65